Time;durP1;ratioP1;P1;durP2;ratioP2;P2;SDS_P1;SDS_P2;PMS_P1;PMS_P2;Temp;Humidity;BMP_temperature;BMP_pressure;BME280_temperature;BME280_humidity;BME280_pressure;Samples;Min_cycle;Max_cycle;Signal;HPM_P1;HPM_P2
2023/09/22 00:01:40;;;;;;;0.5;0.5;;;;;;;18.66;72.57324;925.5639;;;;
2023/09/22 00:04:06;;;;;;;0.7;0.6;;;;;;;18.81;72.3418;925.5865;;;;
2023/09/22 00:06:32;;;;;;;0.7;0.6;;;;;;;18.92;70.3916;925.6026;;;;
2023/09/22 00:08:56;;;;;;;0.7;0.7;;;;;;;19.06;70.26465;925.6119;;;;
2023/09/22 00:11:22;;;;;;;0.7;0.5;;;;;;;18.79;71;925.6514;;;;
2023/09/22 00:13:49;;;;;;;0.4;0.3;;;;;;;18.6;70.48047;925.6571;;;;
2023/09/22 00:16:15;;;;;;;1.2;0.4;;;;;;;18.4;70.03125;925.656;;;;
2023/09/22 00:18:39;;;;;;;0.5;0.5;;;;;;;18.32;71.0752;925.7578;;;;
2023/09/22 00:21:06;;;;;;;0.8;0.6;;;;;;;18.06;72.0332;925.7725;;;;
2023/09/22 00:23:29;;;;;;;1.1;0.6;;;;;;;17.91;71.83496;925.7297;;;;
2023/09/22 00:25:55;;;;;;;1.7;0.6;;;;;;;17.77;73.52832;925.747;;;;
2023/09/22 00:28:20;;;;;;;0.5;0.5;;;;;;;17.93;72.14063;925.7224;;;;
2023/09/22 00:30:45;;;;;;;1.8;0.6;;;;;;;18.09;70.41113;925.7842;;;;
2023/09/22 00:33:10;;;;;;;1.1;0.6;;;;;;;18.24;70.39941;925.8109;;;;
2023/09/22 00:35:39;;;;;;;0.9;0.6;;;;;;;18.26;70.36914;925.8269;;;;
2023/09/22 00:38:05;;;;;;;1.5;0.5;;;;;;;18.27;69.97363;925.8035;;;;
2023/09/22 00:40:30;;;;;;;1.5;0.7;;;;;;;18.28;69.84863;925.7664;;;;
2023/09/22 00:42:55;;;;;;;1.2;0.7;;;;;;;18.22;70.13086;925.8511;;;;
2023/09/22 00:45:21;;;;;;;0.6;0.6;;;;;;;18.25;70.18164;925.8041;;;;
2023/09/22 00:47:47;;;;;;;0.7;0.5;;;;;;;18.42;69.1377;925.8384;;;;
2023/09/22 00:50:11;;;;;;;1.8;0.6;;;;;;;18.49;68.31055;925.8954;;;;
2023/09/22 00:52:37;;;;;;;1.2;0.6;;;;;;;18.43;68.08105;925.9003;;;;
2023/09/22 00:55:02;;;;;;;1.6;0.7;;;;;;;18.42;68.50977;925.911;;;;
2023/09/22 00:57:27;;;;;;;0.5;0.5;;;;;;;18.34;68.75293;925.8054;;;;
2023/09/22 00:59:52;;;;;;;1;0.6;;;;;;;18.42;67.83594;925.8143;;;;
2023/09/22 01:02:17;;;;;;;0.7;0.7;;;;;;;18.41;68.68359;925.7427;;;;
2023/09/22 01:04:42;;;;;;;1;0.9;;;;;;;18.43;68.04688;925.7873;;;;
2023/09/22 01:07:08;;;;;;;0.9;0.8;;;;;;;18.36;68.90723;925.7804;;;;
2023/09/22 01:09:32;;;;;;;1.8;0.8;;;;;;;18.3;69.77051;925.8752;;;;
2023/09/22 01:11:58;;;;;;;1.2;0.5;;;;;;;18.34;69.91699;925.9348;;;;
2023/09/22 01:14:23;;;;;;;1.1;0.8;;;;;;;18.35;70.68457;925.9469;;;;
2023/09/22 01:16:50;;;;;;;0.8;0.7;;;;;;;18.34;69.52051;925.9818;;;;
2023/09/22 01:19:16;;;;;;;0.8;0.6;;;;;;;18.35;69.08008;926.0483;;;;
2023/09/22 01:21:39;;;;;;;0.9;0.5;;;;;;;18.37;69.82813;926.0756;;;;
2023/09/22 01:24:04;;;;;;;0.9;0.6;;;;;;;18.38;68.66699;926.0518;;;;
2023/09/22 01:26:29;;;;;;;0.7;0.5;;;;;;;18.4;68.41406;926.1631;;;;
2023/09/22 01:28:54;;;;;;;0.8;0.6;;;;;;;18.25;69.18262;926.2182;;;;
2023/09/22 01:31:21;;;;;;;0.8;0.7;;;;;;;18.11;70.53027;926.2654;;;;
2023/09/22 01:33:46;;;;;;;2.3;0.6;;;;;;;18.09;71.53809;926.2814;;;;
2023/09/22 01:36:14;;;;;;;1;0.8;;;;;;;18;72.5918;926.2966;;;;
2023/09/22 01:38:38;;;;;;;1.1;0.6;;;;;;;18.08;72.43164;926.305;;;;
2023/09/22 01:41:03;;;;;;;0.9;0.6;;;;;;;17.94;74.69531;926.3022;;;;
2023/09/22 01:43:28;;;;;;;1.1;0.6;;;;;;;18.08;75.13672;926.3503;;;;
2023/09/22 01:45:53;;;;;;;1.6;0.8;;;;;;;17.94;76.35742;926.3865;;;;
2023/09/22 01:48:20;;;;;;;2.2;0.7;;;;;;;17.98;76.75684;926.4088;;;;
2023/09/22 01:50:45;;;;;;;1;0.9;;;;;;;17.96;78.19434;926.427;;;;
2023/09/22 01:53:11;;;;;;;0.6;0.6;;;;;;;17.83;78.56641;926.44;;;;
2023/09/22 01:55:36;;;;;;;2.5;0.8;;;;;;;17.87;79.47852;926.473;;;;
2023/09/22 01:58:01;;;;;;;1.7;1;;;;;;;17.91;79.32422;926.4467;;;;
2023/09/22 02:00:26;;;;;;;0.9;0.7;;;;;;;17.99;78.53516;926.4083;;;;
2023/09/22 02:02:51;;;;;;;0.8;0.6;;;;;;;17.98;78.97656;926.2797;;;;
2023/09/22 02:05:16;;;;;;;0.9;0.7;;;;;;;17.93;79.93066;926.0987;;;;
2023/09/22 02:07:41;;;;;;;0.7;0.5;;;;;;;17.93;80.07031;926.1453;;;;
2023/09/22 02:10:07;;;;;;;1.6;0.8;;;;;;;17.81;81.57031;926.1844;;;;
2023/09/22 02:12:31;;;;;;;1;0.6;;;;;;;17.82;80.77051;926.2035;;;;
2023/09/22 02:14:57;;;;;;;1.5;0.8;;;;;;;17.63;82.05859;926.2446;;;;
2023/09/22 02:17:22;;;;;;;1.7;0.9;;;;;;;17.36;83.85254;926.3555;;;;
2023/09/22 02:19:47;;;;;;;0.8;0.6;;;;;;;17.3;84.44434;926.445;;;;
2023/09/22 02:22:13;;;;;;;2.1;0.9;;;;;;;17.34;83.92969;926.4774;;;;
2023/09/22 02:24:39;;;;;;;0.9;0.7;;;;;;;17.35;83.76953;926.5062;;;;
2023/09/22 02:27:04;;;;;;;2.4;1;;;;;;;17.13;85.47852;926.4476;;;;
2023/09/22 02:29:29;;;;;;;1.6;0.8;;;;;;;17.02;85.77051;926.5391;;;;
2023/09/22 02:31:54;;;;;;;1.2;0.8;;;;;;;16.99;85.71484;926.4869;;;;
2023/09/22 02:34:20;;;;;;;1.2;0.9;;;;;;;16.92;86.31836;926.4441;;;;
2023/09/22 02:36:45;;;;;;;1.5;0.7;;;;;;;16.92;86.93262;926.4601;;;;
2023/09/22 02:39:10;;;;;;;2.6;0.8;;;;;;;17;85.9043;926.4213;;;;
2023/09/22 02:41:36;;;;;;;1.1;0.9;;;;;;;16.95;86.18457;926.39;;;;
2023/09/22 02:44:01;;;;;;;1.9;0.8;;;;;;;16.97;86.66309;926.4705;;;;
2023/09/22 02:46:26;;;;;;;1.3;0.8;;;;;;;17;86.14746;926.509;;;;
2023/09/22 02:48:52;;;;;;;0.9;0.7;;;;;;;17.04;85.28516;926.495;;;;
2023/09/22 02:51:17;;;;;;;0.6;0.5;;;;;;;16.96;86.0918;926.4628;;;;
2023/09/22 02:53:45;;;;;;;1.1;0.8;;;;;;;16.85;86.59375;926.4224;;;;
2023/09/22 02:56:09;;;;;;;1.3;0.8;;;;;;;16.84;86.61328;926.5923;;;;
2023/09/22 02:58:34;;;;;;;1;0.7;;;;;;;16.93;86.0752;926.5902;;;;
2023/09/22 03:00:59;;;;;;;1.1;0.9;;;;;;;16.89;86.02148;926.663;;;;
2023/09/22 03:03:24;;;;;;;1.1;0.9;;;;;;;16.83;86.13672;926.7357;;;;
2023/09/22 03:05:51;;;;;;;0.9;0.7;;;;;;;16.75;87.2207;926.7661;;;;
2023/09/22 03:08:19;;;;;;;0.9;0.7;;;;;;;16.7;87.16602;926.7156;;;;
2023/09/22 03:10:41;;;;;;;1.7;0.6;;;;;;;16.63;87.51074;926.6758;;;;
2023/09/22 03:13:06;;;;;;;2.2;1;;;;;;;16.43;89.79883;926.6609;;;;
2023/09/22 03:15:42;;;;;;;0.8;0.8;;;;;;;16.32;90.74609;926.6409;;;;
2023/09/22 03:18:13;;;;;;;0.7;0.6;;;;;;;16.28;90.77148;926.5682;;;;
2023/09/22 03:20:43;;;;;;;1.1;0.9;;;;;;;16.11;91.4209;926.6317;;;;
2023/09/22 03:23:08;;;;;;;1.4;0.8;;;;;;;16.17;92.25293;926.6244;;;;
2023/09/22 03:25:37;;;;;;;1.1;0.7;;;;;;;16.18;92.50977;926.5405;;;;
2023/09/22 03:28:08;;;;;;;0.9;0.8;;;;;;;16.28;91.52441;926.5499;;;;
2023/09/22 03:30:33;;;;;;;1.5;0.8;;;;;;;16.32;91.68164;926.6353;;;;
2023/09/22 03:33:05;;;;;;;1.2;0.8;;;;;;;16.46;90.8457;926.5974;;;;
2023/09/22 03:35:37;;;;;;;1.6;0.9;;;;;;;16.56;90.36719;926.6794;;;;
2023/09/22 03:38:04;;;;;;;3.3;1;;;;;;;16.62;90.51855;926.7033;;;;
2023/09/22 03:40:33;;;;;;;0.9;0.7;;;;;;;16.71;89.05469;926.6726;;;;
2023/09/22 03:42:55;;;;;;;1.6;1;;;;;;;16.69;88.08984;926.7136;;;;
2023/09/22 03:45:23;;;;;;;1.2;0.9;;;;;;;16.66;89.12695;926.6724;;;;
2023/09/22 03:47:48;;;;;;;1.5;1;;;;;;;16.58;89.85156;926.6819;;;;
2023/09/22 03:50:19;;;;;;;1.1;0.8;;;;;;;16.62;89.26855;926.7146;;;;
2023/09/22 03:52:50;;;;;;;1.2;0.9;;;;;;;16.64;89.79492;926.7855;;;;
2023/09/22 03:55:15;;;;;;;1.2;0.9;;;;;;;16.62;89.82422;926.7715;;;;
2023/09/22 03:57:46;;;;;;;1.1;0.9;;;;;;;16.48;90.46777;926.7703;;;;
2023/09/22 04:02:34;;;;;;;1.4;0.8;;;;;;;16.27;93.37305;926.8529;;;;
2023/09/22 04:04:59;;;;;;;1.2;1;;;;;;;16.4;92.99707;926.8761;;;;
2023/09/22 04:07:24;;;;;;;1.3;0.9;;;;;;;16.5;91.16602;926.8275;;;;
2023/09/22 04:09:54;;;;;;;1.4;0.8;;;;;;;16.44;90.89844;926.8713;;;;
2023/09/22 04:12:25;;;;;;;1.2;0.9;;;;;;;16.26;91.6709;926.8532;;;;
2023/09/22 04:14:50;;;;;;;1.4;0.8;;;;;;;16.18;93.59668;926.8596;;;;
2023/09/22 04:17:18;;;;;;;1;0.8;;;;;;;16.32;92.1123;926.7958;;;;
2023/09/22 04:19:42;;;;;;;1;0.9;;;;;;;16.38;91.87988;926.884;;;;
2023/09/22 04:22:08;;;;;;;1.2;0.8;;;;;;;16.4;90.70508;926.8745;;;;
2023/09/22 04:24:47;;;;;;;1.6;1.2;;;;;;;16.35;90.73828;926.9036;;;;
2023/09/22 04:27:09;;;;;;;1.3;0.9;;;;;;;16.35;90.69629;926.9492;;;;
2023/09/22 04:29:41;;;;;;;1.8;0.9;;;;;;;16.35;89.93262;927.1017;;;;
2023/09/22 04:32:08;;;;;;;1.1;0.8;;;;;;;16.23;91.25;927.074;;;;
2023/09/22 04:34:34;;;;;;;1.2;0.9;;;;;;;16.2;92.28223;927.1014;;;;
2023/09/22 04:37:05;;;;;;;1.2;0.9;;;;;;;16.18;92.27832;926.98;;;;
2023/09/22 04:39:31;;;;;;;1.2;0.9;;;;;;;16.09;92.55957;927.0475;;;;
2023/09/22 04:41:54;;;;;;;2.4;1;;;;;;;16.17;91.95215;927.2235;;;;
2023/09/22 04:44:22;;;;;;;1;0.8;;;;;;;16.03;91.67969;927.2567;;;;
2023/09/22 04:46:47;;;;;;;1.4;1;;;;;;;16.04;92.46777;927.2153;;;;
2023/09/22 04:49:13;;;;;;;1.6;1;;;;;;;15.94;93.82422;927.2411;;;;
2023/09/22 04:51:39;;;;;;;2.2;0.9;;;;;;;16.01;93.98828;927.313;;;;
2023/09/22 04:54:04;;;;;;;1.9;1;;;;;;;16.03;93.65625;927.3642;;;;
2023/09/22 04:56:28;;;;;;;1.6;1;;;;;;;16.04;93.09375;927.4777;;;;
2023/09/22 04:58:56;;;;;;;2.6;1.1;;;;;;;15.93;93.73926;927.5474;;;;
2023/09/22 05:01:22;;;;;;;2;0.8;;;;;;;16.03;93.05566;927.3819;;;;
2023/09/22 05:03:45;;;;;;;1.5;0.9;;;;;;;16.03;92.9873;927.3947;;;;
2023/09/22 05:06:12;;;;;;;1.5;0.9;;;;;;;15.66;95.83008;927.5273;;;;
2023/09/22 05:08:38;;;;;;;1.8;1.1;;;;;;;15.47;96.97754;927.4685;;;;
2023/09/22 05:11:10;;;;;;;2;1.1;;;;;;;15.56;96.66309;927.5103;;;;
2023/09/22 05:13:38;;;;;;;1.4;1;;;;;;;15.69;96.20801;927.4342;;;;
2023/09/22 05:16:02;;;;;;;1.3;0.9;;;;;;;15.74;95.9541;927.4392;;;;
2023/09/22 05:18:30;;;;;;;3.6;1.3;;;;;;;15.4;97.24121;927.5206;;;;
2023/09/22 05:20:55;;;;;;;1.5;1;;;;;;;15.4;97.4375;927.6705;;;;
2023/09/22 05:23:23;;;;;;;2;0.9;;;;;;;15.42;98.11133;927.8017;;;;
2023/09/22 05:25:49;;;;;;;1.3;1.2;;;;;;;15.44;98.05762;927.872;;;;
2023/09/22 05:28:18;;;;;;;1.5;1;;;;;;;15.37;98.80566;927.9079;;;;
2023/09/22 05:30:46;;;;;;;3;1;;;;;;;15.21;99.55371;927.959;;;;
2023/09/22 05:33:12;;;;;;;1.3;0.9;;;;;;;15.29;99.2002;927.9999;;;;
2023/09/22 05:35:40;;;;;;;1.3;1;;;;;;;15.28;98.73828;928.0329;;;;
2023/09/22 05:38:05;;;;;;;1.1;0.9;;;;;;;15.09;99.96484;928.0005;;;;
2023/09/22 05:40:31;;;;;;;0.8;0.7;;;;;;;15.08;100;927.9447;;;;
2023/09/22 05:42:56;;;;;;;2.7;0.9;;;;;;;15.21;100;927.9597;;;;
2023/09/22 05:45:27;;;;;;;1;0.8;;;;;;;15.22;100;927.9014;;;;
2023/09/22 05:47:56;;;;;;;2.2;1;;;;;;;15.37;100;927.9786;;;;
2023/09/22 05:50:23;;;;;;;1.5;0.9;;;;;;;15.33;100;927.9963;;;;
2023/09/22 05:52:52;;;;;;;1.8;1.2;;;;;;;15.2;100;928.0781;;;;
2023/09/22 05:55:15;;;;;;;1.1;1;;;;;;;15.29;100;928.0214;;;;
2023/09/22 05:57:41;;;;;;;2.4;1.7;;;;;;;15.23;100;928.1031;;;;
2023/09/22 06:00:15;;;;;;;2;1.2;;;;;;;15.22;100;928.1436;;;;
2023/09/22 06:02:33;;;;;;;2.6;1.7;;;;;;;15.05;100;928.2355;;;;
2023/09/22 06:04:58;;;;;;;2.9;1.9;;;;;;;15.02;100;928.2739;;;;
2023/09/22 06:07:25;;;;;;;7.6;4.5;;;;;;;14.96;100;928.3169;;;;
2023/09/22 06:09:50;;;;;;;4.6;2.8;;;;;;;15.13;100;928.3619;;;;
2023/09/22 06:12:15;;;;;;;2.3;0.8;;;;;;;15.32;100;928.267;;;;
2023/09/22 06:14:41;;;;;;;1.4;1;;;;;;;15.46;99.58594;928.3674;;;;
2023/09/22 06:17:06;;;;;;;1.8;0.7;;;;;;;15.5;98.66016;928.4023;;;;
2023/09/22 06:19:31;;;;;;;0.7;0.7;;;;;;;15.53;97.91602;928.4473;;;;
2023/09/22 06:21:59;;;;;;;1.5;0.8;;;;;;;15.6;97.80469;928.457;;;;
2023/09/22 06:24:25;;;;;;;1.3;0.6;;;;;;;15.56;97.71582;928.5676;;;;
2023/09/22 06:26:50;;;;;;;0.9;0.7;;;;;;;15.43;98.4248;928.5653;;;;
2023/09/22 06:29:17;;;;;;;1;0.7;;;;;;;15.18;98.45996;928.5565;;;;
2023/09/22 06:31:46;;;;;;;2;0.7;;;;;;;15.14;99.57324;928.5533;;;;
2023/09/22 06:34:13;;;;;;;0.6;0.6;;;;;;;15.14;99.03125;928.5701;;;;
2023/09/22 06:36:38;;;;;;;0.8;0.6;;;;;;;15.04;98.55664;928.5532;;;;
2023/09/22 06:39:08;;;;;;;1.2;0.8;;;;;;;15.06;99.04688;928.3394;;;;
2023/09/22 06:41:30;;;;;;;1.6;0.8;;;;;;;15.15;98.75391;928.4129;;;;
2023/09/22 06:43:58;;;;;;;1.1;0.7;;;;;;;15.04;99.74512;928.543;;;;
2023/09/22 06:46:23;;;;;;;1.4;0.6;;;;;;;15.23;99.16504;928.5444;;;;
2023/09/22 06:48:48;;;;;;;1.2;0.5;;;;;;;15.39;97.67773;928.5187;;;;
2023/09/22 06:51:14;;;;;;;1.1;0.6;;;;;;;15.4;96.67578;928.4617;;;;
2023/09/22 06:53:39;;;;;;;2.6;0.7;;;;;;;15.47;96.28711;928.4688;;;;
2023/09/22 06:56:08;;;;;;;0.6;0.6;;;;;;;15.38;96.08008;928.4805;;;;
2023/09/22 06:58:29;;;;;;;1;0.7;;;;;;;15.31;96.18164;928.6273;;;;
2023/09/22 07:00:57;;;;;;;1;0.6;;;;;;;15.36;96.11133;928.6791;;;;
2023/09/22 07:03:21;;;;;;;0.7;0.6;;;;;;;15.2;96.44629;928.7458;;;;
2023/09/22 07:05:46;;;;;;;0.7;0.6;;;;;;;15.34;96.29395;928.7974;;;;
2023/09/22 07:08:11;;;;;;;1.6;0.8;;;;;;;15.08;96.82422;928.6791;;;;
2023/09/22 07:10:40;;;;;;;1;0.6;;;;;;;15.06;97.54785;928.7797;;;;
2023/09/22 07:13:06;;;;;;;1.4;0.8;;;;;;;15.16;97.00195;928.788;;;;
2023/09/22 07:15:32;;;;;;;1.2;0.6;;;;;;;15.3;96.44336;928.7687;;;;
2023/09/22 07:17:58;;;;;;;1.9;0.7;;;;;;;15.31;95.84766;928.8824;;;;
2023/09/22 07:20:23;;;;;;;1;0.6;;;;;;;15.31;95.63965;928.892;;;;
2023/09/22 07:22:49;;;;;;;0.9;0.7;;;;;;;15.24;95.76465;928.7983;;;;
2023/09/22 07:25:14;;;;;;;1.1;0.5;;;;;;;14.99;96.76758;928.7491;;;;
2023/09/22 07:27:41;;;;;;;1;0.7;;;;;;;14.98;97.9082;928.6948;;;;
2023/09/22 07:30:09;;;;;;;0.7;0.7;;;;;;;15.04;97.03418;928.6078;;;;
2023/09/22 07:32:31;;;;;;;1;0.6;;;;;;;14.98;98.11719;928.5792;;;;
2023/09/22 07:34:55;;;;;;;1.2;0.9;;;;;;;15.16;97.20996;928.6941;;;;
2023/09/22 07:37:22;;;;;;;0.8;0.5;;;;;;;15.21;96.28711;928.801;;;;
2023/09/22 07:39:49;;;;;;;1.4;0.7;;;;;;;15.29;95.93555;928.8219;;;;
2023/09/22 07:42:15;;;;;;;0.5;0.5;;;;;;;15.33;96.18359;928.8155;;;;
2023/09/22 07:44:39;;;;;;;2.2;0.6;;;;;;;15.47;94.7168;928.7625;;;;
2023/09/22 07:47:10;;;;;;;0.7;0.5;;;;;;;15.53;93.81738;928.8267;;;;
2023/09/22 07:49:32;;;;;;;1.1;0.7;;;;;;;15.54;93.6123;928.8;;;;
2023/09/22 07:51:57;;;;;;;3.6;0.7;;;;;;;15.6;93.39258;928.7908;;;;
2023/09/22 07:54:23;;;;;;;1;0.8;;;;;;;15.48;94.51074;928.8095;;;;
2023/09/22 07:56:50;;;;;;;0.7;0.7;;;;;;;15.37;94.42969;928.8455;;;;
2023/09/22 07:59:16;;;;;;;0.6;0.6;;;;;;;15.44;93.79883;928.8747;;;;
2023/09/22 08:01:42;;;;;;;1.6;0.8;;;;;;;15.5;92.43555;928.9005;;;;
2023/09/22 08:04:08;;;;;;;1.4;0.7;;;;;;;15.25;93.02832;928.9071;;;;
2023/09/22 08:06:34;;;;;;;0.6;0.6;;;;;;;15.01;95.54004;928.8591;;;;
2023/09/22 08:08:58;;;;;;;1.2;0.6;;;;;;;15;95.23828;928.8273;;;;
2023/09/22 08:11:25;;;;;;;0.6;0.5;;;;;;;15.17;94.2002;928.9286;;;;
2023/09/22 08:13:49;;;;;;;1.3;0.7;;;;;;;15.28;94.05176;929.0572;;;;
2023/09/22 08:16:18;;;;;;;1.5;0.7;;;;;;;15.27;94.96191;929.1207;;;;
2023/09/22 08:18:42;;;;;;;0.5;0.5;;;;;;;15.44;93.71777;929.2285;;;;
2023/09/22 08:21:09;;;;;;;1.2;0.7;;;;;;;15.32;93.04395;929.2745;;;;
2023/09/22 08:23:36;;;;;;;0.9;0.8;;;;;;;15.53;92.98633;929.2921;;;;
2023/09/22 08:25:58;;;;;;;0.7;0.6;;;;;;;15.65;92.54883;929.3124;;;;
2023/09/22 08:28:25;;;;;;;0.9;0.6;;;;;;;15.66;92.25098;929.34;;;;
2023/09/22 08:30:48;;;;;;;2.8;0.7;;;;;;;15.63;92.86719;929.4573;;;;
2023/09/22 08:33:15;;;;;;;1;0.7;;;;;;;15.71;92.05176;929.4008;;;;
2023/09/22 08:35:41;;;;;;;0.8;0.5;;;;;;;15.62;92.6123;929.3178;;;;
2023/09/22 08:38:07;;;;;;;0.7;0.6;;;;;;;15.48;94.83203;929.3912;;;;
2023/09/22 08:40:32;;;;;;;1.4;0.6;;;;;;;15.41;95.69629;929.4648;;;;
2023/09/22 08:42:58;;;;;;;1;0.6;;;;;;;15.35;96.10938;929.4614;;;;
2023/09/22 08:45:23;;;;;;;1.4;0.7;;;;;;;15.21;97.74121;929.3993;;;;
2023/09/22 08:47:51;;;;;;;0.7;0.7;;;;;;;15.3;97.58594;929.3969;;;;
2023/09/22 08:50:15;;;;;;;1.1;0.8;;;;;;;15.28;97.04199;929.483;;;;
2023/09/22 08:52:42;;;;;;;1.1;0.8;;;;;;;15.37;96.93457;929.461;;;;
2023/09/22 08:55:11;;;;;;;1.5;0.6;;;;;;;15.39;96.17676;929.3208;;;;
2023/09/22 08:57:33;;;;;;;0.5;0.5;;;;;;;15.47;95.58301;929.2422;;;;
2023/09/22 08:59:58;;;;;;;0.6;0.6;;;;;;;15.28;96.10449;929.2642;;;;
2023/09/22 09:02:23;;;;;;;0.6;0.6;;;;;;;15.34;96.40918;929.2217;;;;
2023/09/22 09:04:48;;;;;;;0.6;0.6;;;;;;;15.41;95.04883;929.2307;;;;
2023/09/22 09:07:14;;;;;;;0.4;0.4;;;;;;;15.18;94.94238;929.2043;;;;
2023/09/22 09:09:38;;;;;;;0.9;0.7;;;;;;;15.2;94.85449;929.2263;;;;
2023/09/22 09:12:06;;;;;;;0.6;0.6;;;;;;;15.12;96.33691;929.2514;;;;
2023/09/22 09:14:31;;;;;;;1.2;0.6;;;;;;;15.25;95.10645;929.2784;;;;
2023/09/22 09:16:56;;;;;;;1.5;0.6;;;;;;;15.36;95.22461;929.3729;;;;
2023/09/22 09:19:21;;;;;;;1.7;0.6;;;;;;;15.29;95.03516;929.4171;;;;
2023/09/22 09:21:46;;;;;;;1;0.7;;;;;;;15.32;93.24023;929.4219;;;;
2023/09/22 09:24:13;;;;;;;0.8;0.4;;;;;;;15.26;93.69043;929.392;;;;
2023/09/22 09:26:38;;;;;;;0.9;0.5;;;;;;;15.28;92.21484;929.4455;;;;
2023/09/22 09:29:03;;;;;;;0.9;0.5;;;;;;;15.17;94.24805;929.4891;;;;
2023/09/22 09:31:28;;;;;;;0.6;0.5;;;;;;;15.12;92.27441;929.5338;;;;
2023/09/22 09:33:54;;;;;;;1.2;0.5;;;;;;;15.03;92.91504;929.5845;;;;
2023/09/22 09:36:19;;;;;;;0.9;0.6;;;;;;;15.06;94.22461;929.6527;;;;
2023/09/22 09:38:44;;;;;;;0.7;0.5;;;;;;;15.08;93.88281;929.6331;;;;
2023/09/22 09:41:12;;;;;;;1.4;0.7;;;;;;;15.04;94.19629;929.5756;;;;
2023/09/22 09:43:37;;;;;;;4.3;1.3;;;;;;;15.14;95.25586;929.5541;;;;
2023/09/22 09:46:02;;;;;;;1.7;1;;;;;;;15.16;96.01172;929.5744;;;;
2023/09/22 09:48:27;;;;;;;2.5;0.8;;;;;;;15.34;93.65039;929.5906;;;;
2023/09/22 09:50:53;;;;;;;2.3;1.2;;;;;;;15.43;92.29395;929.6772;;;;
2023/09/22 09:53:21;;;;;;;0.7;0.6;;;;;;;15.47;92.42969;929.7213;;;;
2023/09/22 09:55:46;;;;;;;4.9;1.7;;;;;;;15.32;93.74805;929.7717;;;;
2023/09/22 09:58:11;;;;;;;0.6;0.6;;;;;;;15.32;94.03711;929.7941;;;;
2023/09/22 10:00:36;;;;;;;0.7;0.6;;;;;;;15.04;95.07227;929.8321;;;;
2023/09/22 10:03:02;;;;;;;1.3;0.8;;;;;;;15.29;95.16211;929.9006;;;;
2023/09/22 10:05:27;;;;;;;1.5;0.8;;;;;;;15.43;93.69238;929.7975;;;;
2023/09/22 10:07:56;;;;;;;1.5;0.6;;;;;;;15.36;93.48047;929.713;;;;
2023/09/22 10:10:18;;;;;;;1.7;0.7;;;;;;;15.34;91.68555;929.7553;;;;
2023/09/22 10:12:45;;;;;;;0.5;0.5;;;;;;;15.41;92.40527;929.8137;;;;
2023/09/22 10:15:10;;;;;;;0.6;0.6;;;;;;;15.25;90.83594;929.8552;;;;
2023/09/22 10:17:38;;;;;;;0.7;0.4;;;;;;;14.94;90.8291;929.8105;;;;
2023/09/22 10:20:02;;;;;;;1.3;0.6;;;;;;;14.97;91.82715;929.8596;;;;
2023/09/22 10:22:27;;;;;;;0.6;0.5;;;;;;;14.81;90.37695;929.8611;;;;
2023/09/22 10:24:51;;;;;;;0.8;0.4;;;;;;;14.68;91.66309;929.9736;;;;
2023/09/22 10:27:17;;;;;;;0.6;0.6;;;;;;;14.83;92.60742;929.8409;;;;
2023/09/22 10:29:45;;;;;;;0.9;0.5;;;;;;;14.86;93.62598;929.741;;;;
2023/09/22 10:32:07;;;;;;;0.9;0.6;;;;;;;15;91.34863;929.7917;;;;
2023/09/22 10:34:32;;;;;;;0.9;0.7;;;;;;;15.07;91.7207;929.8971;;;;
2023/09/22 10:36:57;;;;;;;1.1;0.6;;;;;;;15.24;91.42285;929.8842;;;;
2023/09/22 10:39:24;;;;;;;1.8;0.7;;;;;;;15.44;91.4541;929.8734;;;;
2023/09/22 10:41:49;;;;;;;1.6;0.6;;;;;;;15.43;90.81543;929.8314;;;;
2023/09/22 10:44:14;;;;;;;1.3;0.4;;;;;;;15.48;88.29785;929.8164;;;;
2023/09/22 10:46:40;;;;;;;0.8;0.5;;;;;;;15.44;86.24609;929.8286;;;;
2023/09/22 10:49:06;;;;;;;0.6;0.5;;;;;;;15.57;85.12793;929.8665;;;;
2023/09/22 10:51:30;;;;;;;0.9;0.7;;;;;;;15.17;83.61816;929.8517;;;;
2023/09/22 10:53:56;;;;;;;1.3;0.5;;;;;;;15;84.79785;929.9047;;;;
2023/09/22 10:56:21;;;;;;;1.2;0.8;;;;;;;15.12;85.91699;929.9708;;;;
2023/09/22 10:58:46;;;;;;;0.6;0.4;;;;;;;15.26;85.48242;929.9984;;;;
2023/09/22 11:01:13;;;;;;;0.6;0.6;;;;;;;15.11;84.76172;929.9885;;;;
2023/09/22 11:03:40;;;;;;;0.6;0.6;;;;;;;15.11;85.51172;929.938;;;;
2023/09/22 11:06:06;;;;;;;0.6;0.5;;;;;;;15.2;86.24316;929.884;;;;
2023/09/22 11:08:30;;;;;;;0.6;0.6;;;;;;;15.28;87.22852;929.7894;;;;
2023/09/22 11:10:55;;;;;;;0.9;0.6;;;;;;;15.33;84.65137;929.834;;;;
2023/09/22 11:13:21;;;;;;;0.7;0.6;;;;;;;15.19;84.63867;929.8441;;;;
2023/09/22 11:15:46;;;;;;;0.8;0.6;;;;;;;15.23;84.56348;929.9567;;;;
2023/09/22 11:18:11;;;;;;;1;0.6;;;;;;;15.26;82.97852;929.9479;;;;
2023/09/22 11:20:36;;;;;;;1.6;0.8;;;;;;;15.33;84.98633;929.908;;;;
2023/09/22 11:23:02;;;;;;;1.4;0.7;;;;;;;;;;;;;
2023/09/22 11:25:26;;;;;;;0.9;0.7;;;;;;;;;;;;;
2023/09/22 11:27:52;;;;;;;1.6;0.7;;;;;;;;;;;;;
2023/09/22 11:30:19;;;;;;;1.3;0.9;;;;;;;;;;;;;
2023/09/22 11:32:43;;;;;;;1.1;0.5;;;;;;;;;;;;;
2023/09/22 11:35:07;;;;;;;0.5;0.5;;;;;;;;;;;;;
2023/09/22 11:37:33;;;;;;;1;0.8;;;;;;;;;;;;;
2023/09/22 11:39:58;;;;;;;2.8;1.2;;;;;;;;;;;;;
2023/09/22 11:42:23;;;;;;;1.6;0.9;;;;;;;;;;;;;
2023/09/22 11:44:48;;;;;;;1.3;0.8;;;;;;;;;;;;;
2023/09/22 11:47:15;;;;;;;1.1;0.7;;;;;;;;;;;;;
2023/09/22 11:49:40;;;;;;;1.7;0.9;;;;;;;;;;;;;
2023/09/22 11:52:05;;;;;;;0.7;0.6;;;;;;;;;;;;;
2023/09/22 11:54:32;;;;;;;2;0.8;;;;;;;;;;;;;
2023/09/22 11:56:57;;;;;;;1;0.9;;;;;;;;;;;;;
2023/09/22 11:59:21;;;;;;;0.6;0.6;;;;;;;;;;;;;
2023/09/22 12:01:47;;;;;;;1.6;0.7;;;;;;;;;;;;;
2023/09/22 12:04:11;;;;;;;1.4;0.7;;;;;;;;;;;;;
2023/09/22 12:06:36;;;;;;;0.9;0.8;;;;;;;;;;;;;
2023/09/22 12:09:01;;;;;;;0.6;0.6;;;;;;;;;;;;;
2023/09/22 12:11:27;;;;;;;1.2;0.9;;;;;;;;;;;;;
2023/09/22 12:13:51;;;;;;;5.2;1.7;;;;;;;;;;;;;
2023/09/22 12:16:17;;;;;;;1.5;0.9;;;;;;;;;;;;;
2023/09/22 12:18:42;;;;;;;1.1;0.6;;;;;;;;;;;;;
2023/09/22 12:21:07;;;;;;;0.9;0.6;;;;;;;;;;;;;
2023/09/22 12:23:33;;;;;;;0.8;0.6;;;;;;;;;;;;;
2023/09/22 12:25:57;;;;;;;0.5;0.5;;;;;;;;;;;;;
2023/09/22 12:28:22;;;;;;;0.7;0.7;;;;;;;;;;;;;
2023/09/22 12:30:49;;;;;;;1.1;0.7;;;;;;;;;;;;;
2023/09/22 12:33:14;;;;;;;1.7;0.7;;;;;;;;;;;;;
2023/09/22 12:35:40;;;;;;;1.4;0.8;;;;;;;;;;;;;
2023/09/22 12:38:05;;;;;;;0.9;0.7;;;;;;;;;;;;;
2023/09/22 12:40:30;;;;;;;1.4;1.1;;;;;;;;;;;;;
2023/09/22 12:42:55;;;;;;;2.8;1.4;;;;;;;;;;;;;
2023/09/22 12:45:22;;;;;;;1.3;1.2;;;;;;;;;;;;;
2023/09/22 12:47:45;;;;;;;1.1;0.8;;;;;;;;;;;;;
2023/09/22 12:50:10;;;;;;;1.8;0.8;;;;;;;;;;;;;
2023/09/22 12:52:36;;;;;;;1.6;1.1;;;;;;;;;;;;;
2023/09/22 12:55:01;;;;;;;1.8;1.2;;;;;;;;;;;;;
2023/09/22 12:57:27;;;;;;;1.1;0.9;;;;;;;;;;;;;
2023/09/22 12:59:51;;;;;;;1;0.9;;;;;;;;;;;;;
2023/09/22 13:02:17;;;;;;;1.8;0.9;;;;;;;;;;;;;
2023/09/22 13:04:42;;;;;;;1;0.7;;;;;;;;;;;;;
2023/09/22 13:07:07;;;;;;;1.8;0.7;;;;;;;;;;;;;
2023/09/22 13:09:32;;;;;;;1.2;0.9;;;;;;;;;;;;;
2023/09/22 13:11:57;;;;;;;1.7;1;;;;;;;;;;;;;
2023/09/22 13:14:22;;;;;;;2.3;1;;;;;;;;;;;;;
2023/09/22 13:16:48;;;;;;;1.4;0.9;;;;;;;;;;;;;
2023/09/22 13:19:13;;;;;;;1.1;0.9;;;;;;;;;;;;;
2023/09/22 13:21:39;;;;;;;1.4;1.1;;;;;;;;;;;;;
2023/09/22 13:24:05;;;;;;;1.3;0.8;;;;;;;;;;;;;
2023/09/22 13:26:30;;;;;;;1.7;0.9;;;;;;;;;;;;;
2023/09/22 13:28:56;;;;;;;2.3;1.5;;;;;;;;;;;;;
2023/09/22 13:31:19;;;;;;;2.2;1.4;;;;;;;;;;;;;
2023/09/22 13:33:44;;;;;;;1.5;1;;;;;;;;;;;;;
2023/09/22 13:36:10;;;;;;;2.2;1.2;;;;;;;;;;;;;
2023/09/22 13:38:35;;;;;;;1;0.9;;;;;;;;;;;;;
2023/09/22 13:41:00;;;;;;;1.8;0.9;;;;;;;;;;;;;
2023/09/22 13:43:27;;;;;;;1.2;0.8;;;;;;;;;;;;;
2023/09/22 13:45:50;;;;;;;1.9;1;;;;;;;;;;;;;
2023/09/22 13:48:16;;;;;;;1.2;1;;;;;;;;;;;;;
2023/09/22 13:50:41;;;;;;;1.1;0.9;;;;;;;;;;;;;
2023/09/22 13:53:08;;;;;;;1;0.9;;;;;;;;;;;;;
2023/09/22 13:55:32;;;;;;;1.4;1.1;;;;;;;;;;;;;
2023/09/22 13:57:58;;;;;;;1.8;1.2;;;;;;;;;;;;;
2023/09/22 14:00:21;;;;;;;1.7;0.9;;;;;;;;;;;;;
2023/09/22 14:02:47;;;;;;;2.2;1.5;;;;;;;;;;;;;
2023/09/22 14:05:13;;;;;;;1.5;1.3;;;;;;;;;;;;;
2023/09/22 14:07:38;;;;;;;1.3;1;;;;;;;;;;;;;
2023/09/22 14:10:03;;;;;;;3.1;1.6;;;;;;;;;;;;;
2023/09/22 14:12:27;;;;;;;2.3;1.1;;;;;;;;;;;;;
2023/09/22 14:14:55;;;;;;;2.2;1;;;;;;;;;;;;;
2023/09/22 14:17:19;;;;;;;1;0.5;;;;;;;;;;;;;
2023/09/22 14:19:43;;;;;;;1.9;0.9;;;;;;;;;;;;;
2023/09/22 14:22:08;;;;;;;1.1;0.8;;;;;;;;;;;;;
2023/09/22 14:24:33;;;;;;;0.9;0.8;;;;;;;;;;;;;
2023/09/22 14:27:01;;;;;;;3.2;1.4;;;;;;;;;;;;;
2023/09/22 14:29:26;;;;;;;2.9;1.1;;;;;;;;;;;;;
2023/09/22 14:31:51;;;;;;;1;0.8;;;;;;;;;;;;;
2023/09/22 14:34:17;;;;;;;2.2;1.1;;;;;;;;;;;;;
2023/09/22 14:36:43;;;;;;;1.1;0.7;;;;;;;;;;;;;
2023/09/22 14:39:08;;;;;;;1.6;0.8;;;;;;;;;;;;;
2023/09/22 14:41:34;;;;;;;1.1;0.9;;;;;;;;;;;;;
2023/09/22 14:43:59;;;;;;;1;0.7;;;;;;;;;;;;;
2023/09/22 14:46:25;;;;;;;1.7;1.2;;;;;;;;;;;;;
2023/09/22 14:48:49;;;;;;;2.1;1.5;;;;;;;;;;;;;
2023/09/22 14:51:17;;;;;;;1.6;1;;;;;;;;;;;;;
2023/09/22 14:53:39;;;;;;;1.1;0.8;;;;;;;;;;;;;
2023/09/22 14:56:04;;;;;;;0.8;0.8;;;;;;;;;;;;;
2023/09/22 14:58:29;;;;;;;0.9;0.8;;;;;;;;;;;;;
2023/09/22 15:00:57;;;;;;;0.7;0.7;;;;;;;;;;;;;
2023/09/22 15:03:22;;;;;;;0.5;0.4;;;;;;;;;;;;;
2023/09/22 15:05:48;;;;;;;1.1;0.5;;;;;;;;;;;;;
2023/09/22 15:08:12;;;;;;;0.7;0.4;;;;;;;;;;;;;
2023/09/22 15:10:38;;;;;;;1.5;0.6;;;;;;;;;;;;;
2023/09/22 15:13:03;;;;;;;1.5;0.6;;;;;;;;;;;;;
2023/09/22 15:15:29;;;;;;;1.5;0.6;;;;;;;;;;;;;
2023/09/22 15:17:55;;;;;;;0.8;0.8;;;;;;;;;;;;;
2023/09/22 15:20:19;;;;;;;1.4;1;;;;;;;;;;;;;
2023/09/22 15:22:45;;;;;;;1.1;0.6;;;;;;;;;;;;;
2023/09/22 15:25:10;;;;;;;1.3;1;;;;;;;;;;;;;
2023/09/22 15:27:36;;;;;;;1.7;0.9;;;;;;;;;;;;;
2023/09/22 15:30:02;;;;;;;1.1;0.5;;;;;;;;;;;;;
2023/09/22 15:32:27;;;;;;;1.4;0.9;;;;;;;;;;;;;
2023/09/22 15:34:52;;;;;;;2;0.9;;;;;;;;;;;;;
2023/09/22 15:37:17;;;;;;;0.8;0.8;;;;;;;;;;;;;
2023/09/22 15:39:43;;;;;;;1.1;0.9;;;;;;;;;;;;;
2023/09/22 15:42:08;;;;;;;1.4;0.9;;;;;;;;;;;;;
2023/09/22 15:44:32;;;;;;;0.7;0.7;;;;;;;;;;;;;